sensor_id;sensor_type;location;lat;lon;timestamp;temperature;humidity
22562;DHT22;11447;50.562;8.504;2022-11-20T00:01:28;1.40;99.90
22562;DHT22;11447;50.562;8.504;2022-11-20T00:03:55;1.30;99.90
22562;DHT22;11447;50.562;8.504;2022-11-20T00:06:26;1.30;99.90
22562;DHT22;11447;50.562;8.504;2022-11-20T00:08:56;1.40;99.90
22562;DHT22;11447;50.562;8.504;2022-11-20T00:11:23;1.30;99.90
22562;DHT22;11447;50.562;8.504;2022-11-20T00:13:51;1.30;99.90
22562;DHT22;11447;50.562;8.504;2022-11-20T00:16:21;1.30;99.90
22562;DHT22;11447;50.562;8.504;2022-11-20T00:18:49;1.30;99.90
22562;DHT22;11447;50.562;8.504;2022-11-20T00:23:42;1.30;99.90
22562;DHT22;11447;50.562;8.504;2022-11-20T00:26:09;1.30;99.90
22562;DHT22;11447;50.562;8.504;2022-11-20T00:28:39;1.30;99.90
22562;DHT22;11447;50.562;8.504;2022-11-20T00:33:32;1.30;99.90
22562;DHT22;11447;50.562;8.504;2022-11-20T00:36:02;1.30;99.90
22562;DHT22;11447;50.562;8.504;2022-11-20T00:38:29;1.30;99.90
22562;DHT22;11447;50.562;8.504;2022-11-20T00:40:56;1.40;99.90
22562;DHT22;11447;50.562;8.504;2022-11-20T00:43:23;1.40;99.90
22562;DHT22;11447;50.562;8.504;2022-11-20T00:45:50;1.40;99.90
22562;DHT22;11447;50.562;8.504;2022-11-20T00:48:16;1.40;99.90
22562;DHT22;11447;50.562;8.504;2022-11-20T00:50:45;1.40;99.90
22562;DHT22;11447;50.562;8.504;2022-11-20T00:53:12;1.40;99.90
22562;DHT22;11447;50.562;8.504;2022-11-20T00:55:40;1.40;99.90
22562;DHT22;11447;50.562;8.504;2022-11-20T00:58:07;1.40;99.90
22562;DHT22;11447;50.562;8.504;2022-11-20T01:00:39;1.40;99.90
22562;DHT22;11447;50.562;8.504;2022-11-20T01:03:06;1.50;99.90
22562;DHT22;11447;50.562;8.504;2022-11-20T01:05:34;1.40;99.90
22562;DHT22;11447;50.562;8.504;2022-11-20T01:08:00;1.40;99.90
22562;DHT22;11447;50.562;8.504;2022-11-20T01:10:27;1.40;99.90
22562;DHT22;11447;50.562;8.504;2022-11-20T01:12:53;1.40;99.90
22562;DHT22;11447;50.562;8.504;2022-11-20T01:15:40;1.40;99.90
22562;DHT22;11447;50.562;8.504;2022-11-20T01:18:06;1.40;99.90
22562;DHT22;11447;50.562;8.504;2022-11-20T01:20:36;1.50;99.90
22562;DHT22;11447;50.562;8.504;2022-11-20T01:23:05;1.40;99.90
22562;DHT22;11447;50.562;8.504;2022-11-20T01:25:32;1.30;99.90
22562;DHT22;11447;50.562;8.504;2022-11-20T01:28:00;1.30;99.90
22562;DHT22;11447;50.562;8.504;2022-11-20T01:30:29;1.30;99.90
22562;DHT22;11447;50.562;8.504;2022-11-20T01:32:55;1.30;99.90
22562;DHT22;11447;50.562;8.504;2022-11-20T01:35:24;1.40;99.90
22562;DHT22;11447;50.562;8.504;2022-11-20T01:37:51;1.30;99.90
22562;DHT22;11447;50.562;8.504;2022-11-20T01:40:17;1.30;99.90
22562;DHT22;11447;50.562;8.504;2022-11-20T01:42:46;1.30;99.90
22562;DHT22;11447;50.562;8.504;2022-11-20T01:46:33;1.30;99.90
22562;DHT22;11447;50.562;8.504;2022-11-20T01:48:30;1.40;99.90
22562;DHT22;11447;50.562;8.504;2022-11-20T01:51:00;1.40;99.90
22562;DHT22;11447;50.562;8.504;2022-11-20T01:53:29;1.40;99.90
22562;DHT22;11447;50.562;8.504;2022-11-20T01:55:57;1.40;99.90
22562;DHT22;11447;50.562;8.504;2022-11-20T01:58:27;1.40;99.90
22562;DHT22;11447;50.562;8.504;2022-11-20T02:00:54;1.40;99.90
22562;DHT22;11447;50.562;8.504;2022-11-20T02:03:23;1.40;99.90
22562;DHT22;11447;50.562;8.504;2022-11-20T02:08:17;1.40;99.90
22562;DHT22;11447;50.562;8.504;2022-11-20T02:10:43;1.40;99.90
22562;DHT22;11447;50.562;8.504;2022-11-20T02:13:10;1.40;99.90
22562;DHT22;11447;50.562;8.504;2022-11-20T02:15:55;1.40;99.90
22562;DHT22;11447;50.562;8.504;2022-11-20T02:18:22;1.40;99.90
22562;DHT22;11447;50.562;8.504;2022-11-20T02:20:51;1.40;99.90
22562;DHT22;11447;50.562;8.504;2022-11-20T02:23:22;1.40;99.90
22562;DHT22;11447;50.562;8.504;2022-11-20T02:25:50;1.40;99.90
22562;DHT22;11447;50.562;8.504;2022-11-20T02:28:20;1.40;99.90
22562;DHT22;11447;50.562;8.504;2022-11-20T02:30:47;1.40;99.90
22562;DHT22;11447;50.562;8.504;2022-11-20T02:33:13;1.40;99.90
22562;DHT22;11447;50.562;8.504;2022-11-20T02:35:41;1.40;99.90
22562;DHT22;11447;50.562;8.504;2022-11-20T02:38:08;1.50;99.90
22562;DHT22;11447;50.562;8.504;2022-11-20T02:40:35;1.50;99.90
22562;DHT22;11447;50.562;8.504;2022-11-20T02:43:01;1.40;99.90
22562;DHT22;11447;50.562;8.504;2022-11-20T02:45:28;1.50;99.90
22562;DHT22;11447;50.562;8.504;2022-11-20T02:47:54;1.50;99.90
22562;DHT22;11447;50.562;8.504;2022-11-20T02:50:21;1.50;99.90
22562;DHT22;11447;50.562;8.504;2022-11-20T02:52:47;1.60;99.90
22562;DHT22;11447;50.562;8.504;2022-11-20T02:55:14;1.50;99.90
22562;DHT22;11447;50.562;8.504;2022-11-20T02:57:41;1.60;99.90
22562;DHT22;11447;50.562;8.504;2022-11-20T03:00:07;1.60;99.90
22562;DHT22;11447;50.562;8.504;2022-11-20T03:02:34;1.70;99.90
22562;DHT22;11447;50.562;8.504;2022-11-20T03:05:01;1.70;99.90
22562;DHT22;11447;50.562;8.504;2022-11-20T03:07:27;1.60;99.90
22562;DHT22;11447;50.562;8.504;2022-11-20T03:09:54;1.60;99.90
22562;DHT22;11447;50.562;8.504;2022-11-20T03:12:23;1.60;99.90
22562;DHT22;11447;50.562;8.504;2022-11-20T03:14:49;1.60;99.90
22562;DHT22;11447;50.562;8.504;2022-11-20T03:17:19;1.70;99.90
22562;DHT22;11447;50.562;8.504;2022-11-20T03:19:45;1.70;99.90
22562;DHT22;11447;50.562;8.504;2022-11-20T03:22:12;1.70;99.90
22562;DHT22;11447;50.562;8.504;2022-11-20T03:24:38;1.60;99.90
22562;DHT22;11447;50.562;8.504;2022-11-20T03:27:07;1.50;99.90
22562;DHT22;11447;50.562;8.504;2022-11-20T03:29:37;1.60;99.90
22562;DHT22;11447;50.562;8.504;2022-11-20T03:32:03;1.60;99.90
22562;DHT22;11447;50.562;8.504;2022-11-20T03:34:32;1.40;99.90
22562;DHT22;11447;50.562;8.504;2022-11-20T03:36:59;1.30;99.90
22562;DHT22;11447;50.562;8.504;2022-11-20T03:39:25;1.30;99.90
22562;DHT22;11447;50.562;8.504;2022-11-20T03:41:52;1.30;99.90
22562;DHT22;11447;50.562;8.504;2022-11-20T03:44:20;1.30;99.90
22562;DHT22;11447;50.562;8.504;2022-11-20T03:46:47;1.40;99.90
22562;DHT22;11447;50.562;8.504;2022-11-20T03:49:16;1.40;99.90
22562;DHT22;11447;50.562;8.504;2022-11-20T03:51:45;1.50;99.90
22562;DHT22;11447;50.562;8.504;2022-11-20T03:54:11;1.50;99.90
22562;DHT22;11447;50.562;8.504;2022-11-20T03:56:40;1.50;99.90
22562;DHT22;11447;50.562;8.504;2022-11-20T03:59:09;1.50;99.90
22562;DHT22;11447;50.562;8.504;2022-11-20T04:01:36;1.50;99.90
22562;DHT22;11447;50.562;8.504;2022-11-20T04:04:10;1.50;99.90
22562;DHT22;11447;50.562;8.504;2022-11-20T04:06:39;1.50;99.90
22562;DHT22;11447;50.562;8.504;2022-11-20T04:09:06;1.50;99.90
22562;DHT22;11447;50.562;8.504;2022-11-20T04:11:33;1.50;99.90
22562;DHT22;11447;50.562;8.504;2022-11-20T04:14:01;1.50;99.90
22562;DHT22;11447;50.562;8.504;2022-11-20T04:16:33;1.50;99.90
22562;DHT22;11447;50.562;8.504;2022-11-20T04:19:03;1.60;99.90
22562;DHT22;11447;50.562;8.504;2022-11-20T04:21:29;1.60;99.90
22562;DHT22;11447;50.562;8.504;2022-11-20T04:23:56;1.60;99.90
22562;DHT22;11447;50.562;8.504;2022-11-20T04:26:26;1.60;99.90
22562;DHT22;11447;50.562;8.504;2022-11-20T04:28:55;1.60;99.90
22562;DHT22;11447;50.562;8.504;2022-11-20T04:31:23;1.60;99.90
22562;DHT22;11447;50.562;8.504;2022-11-20T04:33:50;1.60;99.90
22562;DHT22;11447;50.562;8.504;2022-11-20T04:36:21;1.60;99.90
22562;DHT22;11447;50.562;8.504;2022-11-20T04:38:51;1.60;99.90
22562;DHT22;11447;50.562;8.504;2022-11-20T04:41:23;1.60;99.90
22562;DHT22;11447;50.562;8.504;2022-11-20T04:43:51;1.60;99.90
22562;DHT22;11447;50.562;8.504;2022-11-20T04:46:18;1.70;99.90
22562;DHT22;11447;50.562;8.504;2022-11-20T04:48:45;1.70;99.90
22562;DHT22;11447;50.562;8.504;2022-11-20T04:51:14;1.70;99.90
22562;DHT22;11447;50.562;8.504;2022-11-20T04:53:41;1.70;99.90
22562;DHT22;11447;50.562;8.504;2022-11-20T04:56:08;1.70;99.90
22562;DHT22;11447;50.562;8.504;2022-11-20T04:58:40;1.70;99.90
22562;DHT22;11447;50.562;8.504;2022-11-20T05:01:09;1.70;99.90
22562;DHT22;11447;50.562;8.504;2022-11-20T05:03:35;1.70;99.90
22562;DHT22;11447;50.562;8.504;2022-11-20T05:06:08;1.80;99.90
22562;DHT22;11447;50.562;8.504;2022-11-20T05:08:35;1.80;99.90
22562;DHT22;11447;50.562;8.504;2022-11-20T05:11:06;1.80;99.90
22562;DHT22;11447;50.562;8.504;2022-11-20T05:13:35;1.80;99.90
22562;DHT22;11447;50.562;8.504;2022-11-20T05:16:05;1.80;99.90
22562;DHT22;11447;50.562;8.504;2022-11-20T05:18:35;1.80;99.90
22562;DHT22;11447;50.562;8.504;2022-11-20T05:21:05;1.80;99.90
22562;DHT22;11447;50.562;8.504;2022-11-20T05:23:32;1.70;99.90
22562;DHT22;11447;50.562;8.504;2022-11-20T05:25:58;1.80;99.90
22562;DHT22;11447;50.562;8.504;2022-11-20T05:28:26;1.80;99.90
22562;DHT22;11447;50.562;8.504;2022-11-20T05:30:52;1.80;99.90
22562;DHT22;11447;50.562;8.504;2022-11-20T05:33:21;1.70;99.90
22562;DHT22;11447;50.562;8.504;2022-11-20T05:35:48;1.80;99.90
22562;DHT22;11447;50.562;8.504;2022-11-20T05:38:15;1.70;99.90
22562;DHT22;11447;50.562;8.504;2022-11-20T05:40:43;1.70;99.90
22562;DHT22;11447;50.562;8.504;2022-11-20T05:43:10;1.70;99.90
22562;DHT22;11447;50.562;8.504;2022-11-20T05:45:37;1.70;99.90
22562;DHT22;11447;50.562;8.504;2022-11-20T05:48:06;1.70;99.90
22562;DHT22;11447;50.562;8.504;2022-11-20T05:50:35;1.70;99.90
22562;DHT22;11447;50.562;8.504;2022-11-20T05:53:04;1.70;99.90
22562;DHT22;11447;50.562;8.504;2022-11-20T05:55:33;1.70;99.90
22562;DHT22;11447;50.562;8.504;2022-11-20T05:57:59;1.70;99.90
22562;DHT22;11447;50.562;8.504;2022-11-20T06:00:26;1.60;99.90
22562;DHT22;11447;50.562;8.504;2022-11-20T06:02:52;1.60;99.90
22562;DHT22;11447;50.562;8.504;2022-11-20T06:05:21;1.60;99.90
22562;DHT22;11447;50.562;8.504;2022-11-20T06:07:50;1.60;99.90
22562;DHT22;11447;50.562;8.504;2022-11-20T06:10:17;1.70;99.90
22562;DHT22;11447;50.562;8.504;2022-11-20T06:12:43;1.60;99.90
22562;DHT22;11447;50.562;8.504;2022-11-20T06:15:10;1.60;99.90
22562;DHT22;11447;50.562;8.504;2022-11-20T06:17:36;1.70;99.90
22562;DHT22;11447;50.562;8.504;2022-11-20T06:20:03;1.70;99.90
22562;DHT22;11447;50.562;8.504;2022-11-20T06:22:30;1.60;99.90
22562;DHT22;11447;50.562;8.504;2022-11-20T06:24:56;1.60;99.90
22562;DHT22;11447;50.562;8.504;2022-11-20T06:27:23;1.60;99.90
22562;DHT22;11447;50.562;8.504;2022-11-20T06:29:49;1.60;99.90
22562;DHT22;11447;50.562;8.504;2022-11-20T06:32:21;1.70;99.90
22562;DHT22;11447;50.562;8.504;2022-11-20T06:34:50;1.70;99.90
22562;DHT22;11447;50.562;8.504;2022-11-20T06:37:21;1.70;99.90
22562;DHT22;11447;50.562;8.504;2022-11-20T06:39:47;1.80;99.90
22562;DHT22;11447;50.562;8.504;2022-11-20T06:42:14;1.80;99.90
22562;DHT22;11447;50.562;8.504;2022-11-20T06:44:41;1.80;99.90
22562;DHT22;11447;50.562;8.504;2022-11-20T06:47:07;1.80;99.90
22562;DHT22;11447;50.562;8.504;2022-11-20T06:49:34;1.80;99.90
22562;DHT22;11447;50.562;8.504;2022-11-20T06:52:00;1.80;99.90
22562;DHT22;11447;50.562;8.504;2022-11-20T06:54:29;1.80;99.90
22562;DHT22;11447;50.562;8.504;2022-11-20T06:56:58;1.70;99.90
22562;DHT22;11447;50.562;8.504;2022-11-20T06:59:25;1.70;99.90
22562;DHT22;11447;50.562;8.504;2022-11-20T07:01:51;1.60;99.90
22562;DHT22;11447;50.562;8.504;2022-11-20T07:04:18;1.70;99.90
22562;DHT22;11447;50.562;8.504;2022-11-20T07:06:45;1.70;99.90
22562;DHT22;11447;50.562;8.504;2022-11-20T07:09:16;1.70;99.90
22562;DHT22;11447;50.562;8.504;2022-11-20T07:11:42;1.70;99.90
22562;DHT22;11447;50.562;8.504;2022-11-20T07:14:09;1.80;99.90
22562;DHT22;11447;50.562;8.504;2022-11-20T07:16:38;1.80;99.90
22562;DHT22;11447;50.562;8.504;2022-11-20T07:19:05;1.80;99.90
22562;DHT22;11447;50.562;8.504;2022-11-20T07:21:33;1.80;99.90
22562;DHT22;11447;50.562;8.504;2022-11-20T07:24:00;1.80;99.90
22562;DHT22;11447;50.562;8.504;2022-11-20T07:26:29;1.90;99.90
22562;DHT22;11447;50.562;8.504;2022-11-20T07:28:55;1.80;99.90
22562;DHT22;11447;50.562;8.504;2022-11-20T07:31:24;1.80;99.90
22562;DHT22;11447;50.562;8.504;2022-11-20T07:33:51;1.90;99.90
22562;DHT22;11447;50.562;8.504;2022-11-20T07:36:17;1.80;99.90
22562;DHT22;11447;50.562;8.504;2022-11-20T07:38:44;1.80;99.90
22562;DHT22;11447;50.562;8.504;2022-11-20T07:41:10;1.80;99.90
22562;DHT22;11447;50.562;8.504;2022-11-20T07:43:37;1.80;99.90
22562;DHT22;11447;50.562;8.504;2022-11-20T07:46:07;1.80;99.90
22562;DHT22;11447;50.562;8.504;2022-11-20T07:48:33;1.90;99.90
22562;DHT22;11447;50.562;8.504;2022-11-20T07:51:00;1.90;99.90
22562;DHT22;11447;50.562;8.504;2022-11-20T07:53:26;1.90;99.90
22562;DHT22;11447;50.562;8.504;2022-11-20T07:55:53;1.90;99.90
22562;DHT22;11447;50.562;8.504;2022-11-20T07:58:20;2.00;99.90
22562;DHT22;11447;50.562;8.504;2022-11-20T08:00:47;2.00;99.90
22562;DHT22;11447;50.562;8.504;2022-11-20T08:03:13;2.00;99.90
22562;DHT22;11447;50.562;8.504;2022-11-20T08:05:45;2.00;99.90
22562;DHT22;11447;50.562;8.504;2022-11-20T08:08:14;2.00;99.90
22562;DHT22;11447;50.562;8.504;2022-11-20T08:10:41;2.00;99.90
22562;DHT22;11447;50.562;8.504;2022-11-20T08:13:08;2.00;99.90
22562;DHT22;11447;50.562;8.504;2022-11-20T08:15:53;2.00;99.90
22562;DHT22;11447;50.562;8.504;2022-11-20T08:18:20;2.00;99.90
22562;DHT22;11447;50.562;8.504;2022-11-20T08:21:00;2.00;99.90
22562;DHT22;11447;50.562;8.504;2022-11-20T08:23:27;2.00;99.90
22562;DHT22;11447;50.562;8.504;2022-11-20T08:25:54;2.00;99.90
22562;DHT22;11447;50.562;8.504;2022-11-20T08:28:20;2.00;99.90
22562;DHT22;11447;50.562;8.504;2022-11-20T08:30:48;2.10;99.90
22562;DHT22;11447;50.562;8.504;2022-11-20T08:33:17;2.10;99.90
22562;DHT22;11447;50.562;8.504;2022-11-20T08:35:46;2.10;99.90
22562;DHT22;11447;50.562;8.504;2022-11-20T08:38:16;2.10;99.90
22562;DHT22;11447;50.562;8.504;2022-11-20T08:40:42;2.10;99.90
22562;DHT22;11447;50.562;8.504;2022-11-20T08:43:29;2.10;99.90
22562;DHT22;11447;50.562;8.504;2022-11-20T08:45:56;2.10;99.90
22562;DHT22;11447;50.562;8.504;2022-11-20T08:48:23;2.20;99.90
22562;DHT22;11447;50.562;8.504;2022-11-20T08:50:49;2.20;99.90
22562;DHT22;11447;50.562;8.504;2022-11-20T08:53:18;2.20;99.90
22562;DHT22;11447;50.562;8.504;2022-11-20T08:55:45;2.30;99.90
22562;DHT22;11447;50.562;8.504;2022-11-20T08:58:11;2.30;99.90
22562;DHT22;11447;50.562;8.504;2022-11-20T09:00:38;2.30;99.90
22562;DHT22;11447;50.562;8.504;2022-11-20T09:03:05;2.30;99.90
22562;DHT22;11447;50.562;8.504;2022-11-20T09:05:31;2.40;99.90
22562;DHT22;11447;50.562;8.504;2022-11-20T09:07:58;2.40;99.90
22562;DHT22;11447;50.562;8.504;2022-11-20T09:10:27;2.40;99.90
22562;DHT22;11447;50.562;8.504;2022-11-20T09:12:54;2.50;99.90
22562;DHT22;11447;50.562;8.504;2022-11-20T09:15:22;2.50;99.90
22562;DHT22;11447;50.562;8.504;2022-11-20T09:17:52;2.50;99.90
22562;DHT22;11447;50.562;8.504;2022-11-20T09:20:21;2.40;99.90
22562;DHT22;11447;50.562;8.504;2022-11-20T09:22:48;2.50;99.90
22562;DHT22;11447;50.562;8.504;2022-11-20T09:25:17;2.50;99.90
22562;DHT22;11447;50.562;8.504;2022-11-20T09:27:44;2.50;99.90
22562;DHT22;11447;50.562;8.504;2022-11-20T09:30:13;2.50;99.90
22562;DHT22;11447;50.562;8.504;2022-11-20T09:32:40;2.60;99.90
22562;DHT22;11447;50.562;8.504;2022-11-20T09:35:06;2.60;99.90
22562;DHT22;11447;50.562;8.504;2022-11-20T09:37:33;2.60;99.90
22562;DHT22;11447;50.562;8.504;2022-11-20T09:40:00;2.60;99.90
22562;DHT22;11447;50.562;8.504;2022-11-20T09:47:59;2.60;99.90
22562;DHT22;11447;50.562;8.504;2022-11-20T09:50:32;2.60;99.90
22562;DHT22;11447;50.562;8.504;2022-11-20T09:55:40;2.80;99.90
22562;DHT22;11447;50.562;8.504;2022-11-20T09:58:12;2.80;99.90
22562;DHT22;11447;50.562;8.504;2022-11-20T10:00:40;2.80;99.90
22562;DHT22;11447;50.562;8.504;2022-11-20T10:03:12;2.80;99.90
22562;DHT22;11447;50.562;8.504;2022-11-20T10:11:10;2.90;99.90
22562;DHT22;11447;50.562;8.504;2022-11-20T10:13:42;2.90;99.90
22562;DHT22;11447;50.562;8.504;2022-11-20T10:16:18;2.90;99.90
22562;DHT22;11447;50.562;8.504;2022-11-20T10:18:51;2.90;99.90
22562;DHT22;11447;50.562;8.504;2022-11-20T10:26:28;3.00;99.90
22562;DHT22;11447;50.562;8.504;2022-11-20T10:29:02;3.00;99.90
22562;DHT22;11447;50.562;8.504;2022-11-20T10:34:03;3.00;99.90
22562;DHT22;11447;50.562;8.504;2022-11-20T10:36:47;3.00;99.90
22562;DHT22;11447;50.562;8.504;2022-11-20T10:42:00;3.00;99.90
22562;DHT22;11447;50.562;8.504;2022-11-20T10:44:29;3.00;99.90
22562;DHT22;11447;50.562;8.504;2022-11-20T10:47:21;3.10;99.90
22562;DHT22;11447;50.562;8.504;2022-11-20T10:49:49;3.10;99.90
22562;DHT22;11447;50.562;8.504;2022-11-20T11:00:06;3.20;99.90
22562;DHT22;11447;50.562;8.504;2022-11-20T11:02:43;3.30;99.90
22562;DHT22;11447;50.562;8.504;2022-11-20T11:07:47;3.30;99.90
22562;DHT22;11447;50.562;8.504;2022-11-20T11:10:18;3.40;99.90
22562;DHT22;11447;50.562;8.504;2022-11-20T11:12:46;3.40;99.90
22562;DHT22;11447;50.562;8.504;2022-11-20T11:15:26;3.40;99.90
22562;DHT22;11447;50.562;8.504;2022-11-20T11:17:53;3.50;99.90
22562;DHT22;11447;50.562;8.504;2022-11-20T11:20:22;3.50;99.90
22562;DHT22;11447;50.562;8.504;2022-11-20T11:22:51;3.60;99.90
22562;DHT22;11447;50.562;8.504;2022-11-20T11:25:22;3.60;99.90
22562;DHT22;11447;50.562;8.504;2022-11-20T11:27:49;3.60;99.90
22562;DHT22;11447;50.562;8.504;2022-11-20T11:30:17;3.60;99.90
22562;DHT22;11447;50.562;8.504;2022-11-20T11:32:44;3.70;99.90
22562;DHT22;11447;50.562;8.504;2022-11-20T11:35:33;3.80;99.90
22562;DHT22;11447;50.562;8.504;2022-11-20T11:38:06;3.80;99.90
22562;DHT22;11447;50.562;8.504;2022-11-20T11:40:34;3.80;99.90
22562;DHT22;11447;50.562;8.504;2022-11-20T11:43:04;3.80;99.90
22562;DHT22;11447;50.562;8.504;2022-11-20T11:45:31;3.90;99.90
22562;DHT22;11447;50.562;8.504;2022-11-20T11:47:58;3.90;99.90
22562;DHT22;11447;50.562;8.504;2022-11-20T11:50:27;4.00;99.90
22562;DHT22;11447;50.562;8.504;2022-11-20T12:00:45;4.00;99.90
22562;DHT22;11447;50.562;8.504;2022-11-20T12:03:21;4.00;99.90
22562;DHT22;11447;50.562;8.504;2022-11-20T12:05:53;4.00;99.90
22562;DHT22;11447;50.562;8.504;2022-11-20T12:08:23;4.00;99.90
22562;DHT22;11447;50.562;8.504;2022-11-20T12:10:59;4.00;99.90
22562;DHT22;11447;50.562;8.504;2022-11-20T12:16:02;4.10;99.90
22562;DHT22;11447;50.562;8.504;2022-11-20T12:18:29;4.10;99.90
22562;DHT22;11447;50.562;8.504;2022-11-20T12:23:58;4.10;99.90
22562;DHT22;11447;50.562;8.504;2022-11-20T12:31:34;4.10;99.90
22562;DHT22;11447;50.562;8.504;2022-11-20T12:37:01;4.10;99.90
22562;DHT22;11447;50.562;8.504;2022-11-20T12:55:23;4.20;99.90
22562;DHT22;11447;50.562;8.504;2022-11-20T12:57:50;4.30;99.90
22562;DHT22;11447;50.562;8.504;2022-11-20T13:00:20;4.30;99.90
22562;DHT22;11447;50.562;8.504;2022-11-20T13:03:01;4.30;99.90
22562;DHT22;11447;50.562;8.504;2022-11-20T13:05:41;4.30;99.90
22562;DHT22;11447;50.562;8.504;2022-11-20T13:08:27;4.30;99.90
22562;DHT22;11447;50.562;8.504;2022-11-20T13:16:08;4.30;99.90
22562;DHT22;11447;50.562;8.504;2022-11-20T13:18:42;4.40;99.90
22562;DHT22;11447;50.562;8.504;2022-11-20T13:21:35;4.40;99.90
22562;DHT22;11447;50.562;8.504;2022-11-20T13:24:07;4.40;99.90
22562;DHT22;11447;50.562;8.504;2022-11-20T13:26:34;4.40;99.90
22562;DHT22;11447;50.562;8.504;2022-11-20T13:29:16;4.40;99.90
22562;DHT22;11447;50.562;8.504;2022-11-20T13:31:44;4.30;99.90
22562;DHT22;11447;50.562;8.504;2022-11-20T13:34:12;4.30;99.90
22562;DHT22;11447;50.562;8.504;2022-11-20T13:36:49;4.40;99.90
22562;DHT22;11447;50.562;8.504;2022-11-20T13:39:38;4.40;99.90
22562;DHT22;11447;50.562;8.504;2022-11-20T13:44:47;4.40;99.90
22562;DHT22;11447;50.562;8.504;2022-11-20T13:47:26;4.40;99.90
22562;DHT22;11447;50.562;8.504;2022-11-20T13:49:53;4.40;99.90
22562;DHT22;11447;50.562;8.504;2022-11-20T13:52:29;4.40;99.90
22562;DHT22;11447;50.562;8.504;2022-11-20T13:55:02;4.30;99.90
22562;DHT22;11447;50.562;8.504;2022-11-20T13:57:35;4.30;99.90
22562;DHT22;11447;50.562;8.504;2022-11-20T14:00:13;4.30;99.90
22562;DHT22;11447;50.562;8.504;2022-11-20T14:02:41;4.30;99.90
22562;DHT22;11447;50.562;8.504;2022-11-20T14:05:17;4.30;99.90
22562;DHT22;11447;50.562;8.504;2022-11-20T14:07:45;4.30;99.90
22562;DHT22;11447;50.562;8.504;2022-11-20T14:10:20;4.30;99.90
22562;DHT22;11447;50.562;8.504;2022-11-20T14:12:49;4.30;99.90
22562;DHT22;11447;50.562;8.504;2022-11-20T14:15:30;4.20;99.90
22562;DHT22;11447;50.562;8.504;2022-11-20T14:17:57;4.20;99.90
22562;DHT22;11447;50.562;8.504;2022-11-20T14:20:25;4.20;99.90
22562;DHT22;11447;50.562;8.504;2022-11-20T14:22:53;4.20;99.90
22562;DHT22;11447;50.562;8.504;2022-11-20T14:25:21;4.30;99.90
22562;DHT22;11447;50.562;8.504;2022-11-20T14:27:53;4.20;99.90
22562;DHT22;11447;50.562;8.504;2022-11-20T14:30:24;4.20;99.90
22562;DHT22;11447;50.562;8.504;2022-11-20T14:32:51;4.20;99.90
22562;DHT22;11447;50.562;8.504;2022-11-20T14:35:26;4.20;99.90
22562;DHT22;11447;50.562;8.504;2022-11-20T14:37:53;4.10;99.90
22562;DHT22;11447;50.562;8.504;2022-11-20T14:42:49;4.20;99.90
22562;DHT22;11447;50.562;8.504;2022-11-20T14:45:16;4.20;99.90
22562;DHT22;11447;50.562;8.504;2022-11-20T14:47:43;4.20;99.90
22562;DHT22;11447;50.562;8.504;2022-11-20T14:50:15;4.20;99.90
22562;DHT22;11447;50.562;8.504;2022-11-20T14:52:56;4.10;99.90
22562;DHT22;11447;50.562;8.504;2022-11-20T14:55:33;4.20;99.90
22562;DHT22;11447;50.562;8.504;2022-11-20T14:58:04;4.20;99.90
22562;DHT22;11447;50.562;8.504;2022-11-20T15:00:31;4.20;99.90
22562;DHT22;11447;50.562;8.504;2022-11-20T15:02:58;4.20;99.90
22562;DHT22;11447;50.562;8.504;2022-11-20T15:08:28;4.20;99.90
22562;DHT22;11447;50.562;8.504;2022-11-20T15:10:55;4.20;99.90
22562;DHT22;11447;50.562;8.504;2022-11-20T15:13:31;4.20;99.90
22562;DHT22;11447;50.562;8.504;2022-11-20T15:15:59;4.30;99.90
22562;DHT22;11447;50.562;8.504;2022-11-20T15:18:28;4.30;99.90
22562;DHT22;11447;50.562;8.504;2022-11-20T15:20:58;4.20;99.90
22562;DHT22;11447;50.562;8.504;2022-11-20T15:23:25;4.00;99.90
22562;DHT22;11447;50.562;8.504;2022-11-20T15:25:52;4.00;99.90
22562;DHT22;11447;50.562;8.504;2022-11-20T15:28:24;3.90;99.90
22562;DHT22;11447;50.562;8.504;2022-11-20T15:30:53;3.90;99.90
22562;DHT22;11447;50.562;8.504;2022-11-20T15:33:22;3.90;99.90
22562;DHT22;11447;50.562;8.504;2022-11-20T15:35:48;4.00;99.90
22562;DHT22;11447;50.562;8.504;2022-11-20T15:38:15;3.90;99.90
22562;DHT22;11447;50.562;8.504;2022-11-20T15:40:44;3.90;99.90
22562;DHT22;11447;50.562;8.504;2022-11-20T15:43:10;3.90;99.90
22562;DHT22;11447;50.562;8.504;2022-11-20T15:45:43;3.90;99.90
22562;DHT22;11447;50.562;8.504;2022-11-20T15:48:12;3.90;99.90
22562;DHT22;11447;50.562;8.504;2022-11-20T15:53:18;3.80;99.90
22562;DHT22;11447;50.562;8.504;2022-11-20T15:55:44;3.70;99.90
22562;DHT22;11447;50.562;8.504;2022-11-20T15:58:11;3.70;99.90
22562;DHT22;11447;50.562;8.504;2022-11-20T16:00:40;3.70;99.90
22562;DHT22;11447;50.562;8.504;2022-11-20T16:03:13;3.70;99.90
22562;DHT22;11447;50.562;8.504;2022-11-20T16:05:41;3.70;99.90
22562;DHT22;11447;50.562;8.504;2022-11-20T16:08:11;3.70;99.90
22562;DHT22;11447;50.562;8.504;2022-11-20T16:10:37;3.70;99.90
22562;DHT22;11447;50.562;8.504;2022-11-20T16:13:05;3.70;99.90
22562;DHT22;11447;50.562;8.504;2022-11-20T16:15:51;3.70;99.90
22562;DHT22;11447;50.562;8.504;2022-11-20T16:18:19;3.70;99.90
22562;DHT22;11447;50.562;8.504;2022-11-20T16:20:47;3.70;99.90
22562;DHT22;11447;50.562;8.504;2022-11-20T16:23:14;3.70;99.90
22562;DHT22;11447;50.562;8.504;2022-11-20T16:25:42;3.70;99.90
22562;DHT22;11447;50.562;8.504;2022-11-20T16:28:09;3.70;99.90
22562;DHT22;11447;50.562;8.504;2022-11-20T16:30:45;3.60;99.90
22562;DHT22;11447;50.562;8.504;2022-11-20T16:33:12;3.70;99.90
22562;DHT22;11447;50.562;8.504;2022-11-20T16:35:39;3.70;99.90
22562;DHT22;11447;50.562;8.504;2022-11-20T16:38:08;3.70;99.90
22562;DHT22;11447;50.562;8.504;2022-11-20T16:40:35;3.70;99.90
22562;DHT22;11447;50.562;8.504;2022-11-20T16:43:10;3.70;99.90
22562;DHT22;11447;50.562;8.504;2022-11-20T16:45:42;3.70;99.90
22562;DHT22;11447;50.562;8.504;2022-11-20T16:48:13;3.80;99.90
22562;DHT22;11447;50.562;8.504;2022-11-20T16:50:50;3.80;99.90
22562;DHT22;11447;50.562;8.504;2022-11-20T16:53:20;3.80;99.90
22562;DHT22;11447;50.562;8.504;2022-11-20T16:55:47;3.80;99.90
22562;DHT22;11447;50.562;8.504;2022-11-20T16:58:16;3.70;99.90
22562;DHT22;11447;50.562;8.504;2022-11-20T17:00:45;3.80;99.90
22562;DHT22;11447;50.562;8.504;2022-11-20T17:03:17;3.70;99.90
22562;DHT22;11447;50.562;8.504;2022-11-20T17:05:46;3.80;99.90
22562;DHT22;11447;50.562;8.504;2022-11-20T17:08:15;3.80;99.90
22562;DHT22;11447;50.562;8.504;2022-11-20T17:10:42;3.80;99.90
22562;DHT22;11447;50.562;8.504;2022-11-20T17:13:09;3.90;99.90
22562;DHT22;11447;50.562;8.504;2022-11-20T17:15:40;3.90;99.90
22562;DHT22;11447;50.562;8.504;2022-11-20T17:18:06;3.90;99.90
22562;DHT22;11447;50.562;8.504;2022-11-20T17:20:35;4.00;99.90
22562;DHT22;11447;50.562;8.504;2022-11-20T17:23:02;4.00;99.90
22562;DHT22;11447;50.562;8.504;2022-11-20T17:25:30;4.10;99.90
22562;DHT22;11447;50.562;8.504;2022-11-20T17:27:57;4.10;99.90
22562;DHT22;11447;50.562;8.504;2022-11-20T17:30:24;4.10;99.90
22562;DHT22;11447;50.562;8.504;2022-11-20T17:32:52;4.10;99.90